sensor_id;sensor_type;location;lat;lon;timestamp;pressure;altitude;pressure_sealevel;temperature
24740;BMP280;45234;48.148;17.128;2022-07-23T00:00:28;99956.63;;;27.17
24740;BMP280;45234;48.148;17.128;2022-07-23T00:03:04;99955.06;;;27.16
24740;BMP280;45234;48.148;17.128;2022-07-23T00:05:31;99955.38;;;27.15
24740;BMP280;45234;48.148;17.128;2022-07-23T00:08:01;99952.72;;;27.15
24740;BMP280;45234;48.148;17.128;2022-07-23T00:10:28;99957.25;;;27.14
24740;BMP280;45234;48.148;17.128;2022-07-23T00:12:55;99947.97;;;27.12
24740;BMP280;45234;48.148;17.128;2022-07-23T00:15:22;99953.19;;;27.08
24740;BMP280;45234;48.148;17.128;2022-07-23T00:17:50;99950.03;;;27.06
24740;BMP280;45234;48.148;17.128;2022-07-23T00:20:17;99951.91;;;27.06
24740;BMP280;45234;48.148;17.128;2022-07-23T00:22:51;99938.28;;;26.99
24740;BMP280;45234;48.148;17.128;2022-07-23T00:25:20;99941.75;;;26.99
24740;BMP280;45234;48.148;17.128;2022-07-23T00:27:55;99949.22;;;26.97
24740;BMP280;45234;48.148;17.128;2022-07-23T00:30:22;99950.31;;;26.96
24740;BMP280;45234;48.148;17.128;2022-07-23T00:32:57;99948.91;;;26.90
24740;BMP280;45234;48.148;17.128;2022-07-23T00:35:26;99954.69;;;26.92
24740;BMP280;45234;48.148;17.128;2022-07-23T00:37:54;99952.34;;;26.91
24740;BMP280;45234;48.148;17.128;2022-07-23T00:40:22;99946.06;;;26.87
24740;BMP280;45234;48.148;17.128;2022-07-23T00:42:50;99944.84;;;26.84
24740;BMP280;45234;48.148;17.128;2022-07-23T00:45:17;99955.28;;;26.81
24740;BMP280;45234;48.148;17.128;2022-07-23T00:47:44;99949.19;;;26.80
24740;BMP280;45234;48.148;17.128;2022-07-23T00:50:12;99946.84;;;26.79
24740;BMP280;45234;48.148;17.128;2022-07-23T00:52:40;99949.34;;;26.75
24740;BMP280;45234;48.148;17.128;2022-07-23T00:55:09;99943.56;;;26.73
24740;BMP280;45234;48.148;17.128;2022-07-23T00:57:38;99938.06;;;26.69
24740;BMP280;45234;48.148;17.128;2022-07-23T01:00:08;99940.88;;;26.64
24740;BMP280;45234;48.148;17.128;2022-07-23T01:02:37;99937.41;;;26.64
24740;BMP280;45234;48.148;17.128;2022-07-23T01:05:05;99943.97;;;26.58
24740;BMP280;45234;48.148;17.128;2022-07-23T01:07:33;99943.81;;;26.54
24740;BMP280;45234;48.148;17.128;2022-07-23T01:10:02;99947.56;;;26.53
24740;BMP280;45234;48.148;17.128;2022-07-23T01:12:30;99940.50;;;26.49
24740;BMP280;45234;48.148;17.128;2022-07-23T01:14:59;99931.09;;;26.43
24740;BMP280;45234;48.148;17.128;2022-07-23T01:17:30;99923.28;;;26.38
24740;BMP280;45234;48.148;17.128;2022-07-23T01:19:58;99928.72;;;26.33
24740;BMP280;45234;48.148;17.128;2022-07-23T01:22:29;99933.38;;;26.27
24740;BMP280;45234;48.148;17.128;2022-07-23T01:24:56;99925.72;;;26.25
24740;BMP280;45234;48.148;17.128;2022-07-23T01:27:25;99934.78;;;26.24
24740;BMP280;45234;48.148;17.128;2022-07-23T01:30:00;99936.94;;;26.22
24740;BMP280;45234;48.148;17.128;2022-07-23T01:32:29;99934.16;;;26.27
24740;BMP280;45234;48.148;17.128;2022-07-23T01:34:56;99930.41;;;26.28
24740;BMP280;45234;48.148;17.128;2022-07-23T01:37:24;99919.19;;;26.32
24740;BMP280;45234;48.148;17.128;2022-07-23T01:39:51;99919.19;;;26.32
24740;BMP280;45234;48.148;17.128;2022-07-23T01:42:18;99921.38;;;26.30
24740;BMP280;45234;48.148;17.128;2022-07-23T01:44:46;99915.28;;;26.29
24740;BMP280;45234;48.148;17.128;2022-07-23T01:47:18;99917.72;;;26.25
24740;BMP280;45234;48.148;17.128;2022-07-23T01:49:48;99902.28;;;26.27
24740;BMP280;45234;48.148;17.128;2022-07-23T01:52:15;99901.50;;;26.27
24740;BMP280;45234;48.148;17.128;2022-07-23T01:54:47;99896.47;;;26.25
24740;BMP280;45234;48.148;17.128;2022-07-23T01:57:15;99893.66;;;26.22
24740;BMP280;45234;48.148;17.128;2022-07-23T01:59:42;99903.97;;;26.23
24740;BMP280;45234;48.148;17.128;2022-07-23T02:02:10;99902.91;;;26.24
24740;BMP280;45234;48.148;17.128;2022-07-23T02:04:37;99907.88;;;26.26
24740;BMP280;45234;48.148;17.128;2022-07-23T02:07:05;99896.19;;;26.27
24740;BMP280;45234;48.148;17.128;2022-07-23T02:09:32;99905.41;;;26.30
24740;BMP280;45234;48.148;17.128;2022-07-23T02:12:00;99900.25;;;26.24
24740;BMP280;45234;48.148;17.128;2022-07-23T02:14:27;99904.28;;;26.22
24740;BMP280;45234;48.148;17.128;2022-07-23T02:16:55;99901.31;;;26.23
24740;BMP280;45234;48.148;17.128;2022-07-23T02:19:22;99900.69;;;26.26
24740;BMP280;45234;48.148;17.128;2022-07-23T02:21:49;99903.81;;;26.28
24740;BMP280;45234;48.148;17.128;2022-07-23T02:24:18;99896.38;;;26.31
24740;BMP280;45234;48.148;17.128;2022-07-23T02:26:45;99895.25;;;26.32
24740;BMP280;45234;48.148;17.128;2022-07-23T02:29:13;99898.41;;;26.34
24740;BMP280;45234;48.148;17.128;2022-07-23T02:31:40;99916.69;;;26.35
24740;BMP280;45234;48.148;17.128;2022-07-23T02:34:07;99912.78;;;26.33
24740;BMP280;45234;48.148;17.128;2022-07-23T02:36:39;99907.59;;;26.27
24740;BMP280;45234;48.148;17.128;2022-07-23T02:39:07;99911.19;;;26.32
24740;BMP280;45234;48.148;17.128;2022-07-23T02:41:35;99902.63;;;26.35
24740;BMP280;45234;48.148;17.128;2022-07-23T02:44:03;99898.22;;;26.39
24740;BMP280;45234;48.148;17.128;2022-07-23T02:46:31;99895.56;;;26.39
24740;BMP280;45234;48.148;17.128;2022-07-23T02:48:58;99903.09;;;26.37
24740;BMP280;45234;48.148;17.128;2022-07-23T02:51:26;99904.78;;;26.33
24740;BMP280;45234;48.148;17.128;2022-07-23T02:53:58;99895.38;;;26.26
24740;BMP280;45234;48.148;17.128;2022-07-23T02:56:25;99888.84;;;26.24
24740;BMP280;45234;48.148;17.128;2022-07-23T02:58:52;99876.16;;;26.21
24740;BMP280;45234;48.148;17.128;2022-07-23T03:01:21;99880.38;;;26.22
24740;BMP280;45234;48.148;17.128;2022-07-23T03:03:48;99895.56;;;26.21
24740;BMP280;45234;48.148;17.128;2022-07-23T03:06:15;99897.72;;;26.19
24740;BMP280;45234;48.148;17.128;2022-07-23T03:08:43;99916.03;;;26.21
24740;BMP280;45234;48.148;17.128;2022-07-23T03:11:10;99918.97;;;26.19
24740;BMP280;45234;48.148;17.128;2022-07-23T03:13:43;99917.72;;;26.25
24740;BMP280;45234;48.148;17.128;2022-07-23T03:16:10;99912.91;;;26.27
24740;BMP280;45234;48.148;17.128;2022-07-23T03:18:37;99908.53;;;26.32
24740;BMP280;45234;48.148;17.128;2022-07-23T03:21:06;99915.59;;;26.36
24740;BMP280;45234;48.148;17.128;2022-07-23T03:23:33;99923.75;;;26.40
24740;BMP280;45234;48.148;17.128;2022-07-23T03:26:01;99922.03;;;26.44
24740;BMP280;45234;48.148;17.128;2022-07-23T03:28:30;99922.97;;;26.48
24740;BMP280;45234;48.148;17.128;2022-07-23T03:30:57;99919.13;;;26.54
24740;BMP280;45234;48.148;17.128;2022-07-23T03:33:24;99911.31;;;26.57
24740;BMP280;45234;48.148;17.128;2022-07-23T03:35:53;99907.72;;;26.62
24740;BMP280;45234;48.148;17.128;2022-07-23T03:38:29;99926.94;;;26.67
24740;BMP280;45234;48.148;17.128;2022-07-23T03:40:57;99926.66;;;26.69
24740;BMP280;45234;48.148;17.128;2022-07-23T03:43:24;99921.63;;;26.67
24740;BMP280;45234;48.148;17.128;2022-07-23T03:45:52;99918.50;;;26.65
24740;BMP280;45234;48.148;17.128;2022-07-23T03:48:19;99916.00;;;26.69
24740;BMP280;45234;48.148;17.128;2022-07-23T03:50:46;99904.78;;;26.72
24740;BMP280;45234;48.148;17.128;2022-07-23T03:53:16;99895.72;;;26.73
24740;BMP280;45234;48.148;17.128;2022-07-23T03:55:46;99894.59;;;26.74
24740;BMP280;45234;48.148;17.128;2022-07-23T03:58:13;99894.91;;;26.73
24740;BMP280;45234;48.148;17.128;2022-07-23T04:00:42;99904.59;;;26.77
24740;BMP280;45234;48.148;17.128;2022-07-23T04:03:10;99906.31;;;26.82
24740;BMP280;45234;48.148;17.128;2022-07-23T04:05:37;99906.50;;;26.85
24740;BMP280;45234;48.148;17.128;2022-07-23T04:08:06;99906.97;;;26.87
24740;BMP280;45234;48.148;17.128;2022-07-23T04:10:37;99907.47;;;26.89
24740;BMP280;45234;48.148;17.128;2022-07-23T04:13:06;99897.75;;;26.93
24740;BMP280;45234;48.148;17.128;2022-07-23T04:15:34;99892.91;;;26.95
24740;BMP280;45234;48.148;17.128;2022-07-23T04:18:01;99899.19;;;26.99
24740;BMP280;45234;48.148;17.128;2022-07-23T04:20:38;99907.63;;;27.01
24740;BMP280;45234;48.148;17.128;2022-07-23T04:23:07;99900.91;;;27.04
24740;BMP280;45234;48.148;17.128;2022-07-23T04:25:37;99900.59;;;27.05
24740;BMP280;45234;48.148;17.128;2022-07-23T04:28:05;99907.00;;;27.04
24740;BMP280;45234;48.148;17.128;2022-07-23T04:30:32;99911.69;;;27.07
24740;BMP280;45234;48.148;17.128;2022-07-23T04:32:59;99918.75;;;27.03
24740;BMP280;45234;48.148;17.128;2022-07-23T04:35:28;99926.53;;;27.00
24740;BMP280;45234;48.148;17.128;2022-07-23T04:38:04;99921.69;;;27.02
24740;BMP280;45234;48.148;17.128;2022-07-23T04:40:33;99922.63;;;26.97
24740;BMP280;45234;48.148;17.128;2022-07-23T04:43:01;99925.75;;;26.91
24740;BMP280;45234;48.148;17.128;2022-07-23T04:45:29;99928.72;;;26.89
24740;BMP280;45234;48.148;17.128;2022-07-23T04:47:57;99930.91;;;26.87
24740;BMP280;45234;48.148;17.128;2022-07-23T04:50:24;99942.34;;;26.88
24740;BMP280;45234;48.148;17.128;2022-07-23T04:52:55;99944.19;;;26.87
24740;BMP280;45234;48.148;17.128;2022-07-23T04:55:23;99948.44;;;26.88
24740;BMP280;45234;48.148;17.128;2022-07-23T04:57:50;99959.09;;;26.88
24740;BMP280;45234;48.148;17.128;2022-07-23T05:00:17;99952.19;;;26.87
24740;BMP280;45234;48.148;17.128;2022-07-23T05:02:44;99951.88;;;26.89
24740;BMP280;45234;48.148;17.128;2022-07-23T05:05:11;99952.34;;;26.91
24740;BMP280;45234;48.148;17.128;2022-07-23T05:07:40;99954.09;;;26.95
24740;BMP280;45234;48.148;17.128;2022-07-23T05:10:08;99953.94;;;27.09
24740;BMP280;45234;48.148;17.128;2022-07-23T05:12:35;99967.59;;;27.25
24740;BMP280;45234;48.148;17.128;2022-07-23T05:15:03;99959.28;;;27.35
24740;BMP280;45234;48.148;17.128;2022-07-23T05:17:31;99964.28;;;27.45
24740;BMP280;45234;48.148;17.128;2022-07-23T05:19:58;99966.47;;;27.51
24740;BMP280;45234;48.148;17.128;2022-07-23T05:22:29;99975.84;;;27.66
24740;BMP280;45234;48.148;17.128;2022-07-23T05:24:56;99973.19;;;27.83
24740;BMP280;45234;48.148;17.128;2022-07-23T05:27:24;99967.50;;;28.02
24740;BMP280;45234;48.148;17.128;2022-07-23T05:29:51;99957.84;;;28.27
24740;BMP280;45234;48.148;17.128;2022-07-23T05:32:18;99955.06;;;28.52
24740;BMP280;45234;48.148;17.128;2022-07-23T05:34:53;99955.03;;;29.02
24740;BMP280;45234;48.148;17.128;2022-07-23T05:37:20;99945.88;;;29.45
24740;BMP280;45234;48.148;17.128;2022-07-23T05:39:47;99951.50;;;29.64
24740;BMP280;45234;48.148;17.128;2022-07-23T05:42:15;99955.44;;;29.79
24740;BMP280;45234;48.148;17.128;2022-07-23T05:44:43;99954.47;;;30.08
24740;BMP280;45234;48.148;17.128;2022-07-23T05:47:10;99954.59;;;30.87
24740;BMP280;45234;48.148;17.128;2022-07-23T05:49:38;99957.88;;;31.36
24740;BMP280;45234;48.148;17.128;2022-07-23T05:52:25;99954.41;;;31.99
24740;BMP280;45234;48.148;17.128;2022-07-23T05:55:11;99954.94;;;32.74
24740;BMP280;45234;48.148;17.128;2022-07-23T05:57:40;99952.34;;;33.91
24740;BMP280;45234;48.148;17.128;2022-07-23T06:00:09;99949.97;;;35.16
24740;BMP280;45234;48.148;17.128;2022-07-23T06:02:45;99959.25;;;36.41
24740;BMP280;45234;48.148;17.128;2022-07-23T06:05:16;99959.38;;;37.37
24740;BMP280;45234;48.148;17.128;2022-07-23T06:07:45;99965.53;;;37.65
24740;BMP280;45234;48.148;17.128;2022-07-23T06:10:13;99965.38;;;38.15
24740;BMP280;45234;48.148;17.128;2022-07-23T06:12:41;99973.59;;;38.70
24740;BMP280;45234;48.148;17.128;2022-07-23T06:15:09;99968.47;;;39.23
24740;BMP280;45234;48.148;17.128;2022-07-23T06:17:38;99974.34;;;40.23
24740;BMP280;45234;48.148;17.128;2022-07-23T06:20:09;99988.34;;;40.71
24740;BMP280;45234;48.148;17.128;2022-07-23T06:22:38;99985.44;;;41.05
24740;BMP280;45234;48.148;17.128;2022-07-23T06:25:06;99982.09;;;41.21
24740;BMP280;45234;48.148;17.128;2022-07-23T06:27:45;99993.00;;;41.60
24740;BMP280;45234;48.148;17.128;2022-07-23T06:30:13;99989.19;;;41.93
24740;BMP280;45234;48.148;17.128;2022-07-23T06:32:45;99988.41;;;42.45
24740;BMP280;45234;48.148;17.128;2022-07-23T06:35:14;99986.38;;;42.49
24740;BMP280;45234;48.148;17.128;2022-07-23T06:37:42;99981.44;;;42.12
24740;BMP280;45234;48.148;17.128;2022-07-23T06:40:09;99981.75;;;42.14
24740;BMP280;45234;48.148;17.128;2022-07-23T06:42:37;99982.94;;;42.13
24740;BMP280;45234;48.148;17.128;2022-07-23T06:45:08;99984.97;;;42.09
24740;BMP280;45234;48.148;17.128;2022-07-23T06:47:37;99983.16;;;41.66
24740;BMP280;45234;48.148;17.128;2022-07-23T06:50:06;99983.16;;;41.66
24740;BMP280;45234;48.148;17.128;2022-07-23T06:52:33;99984.31;;;41.65
24740;BMP280;45234;48.148;17.128;2022-07-23T06:55:08;99987.97;;;40.46
24740;BMP280;45234;48.148;17.128;2022-07-23T06:57:36;99977.31;;;38.90
24740;BMP280;45234;48.148;17.128;2022-07-23T07:00:05;99979.69;;;38.15
24740;BMP280;45234;48.148;17.128;2022-07-23T07:02:33;99972.13;;;38.51
24740;BMP280;45234;48.148;17.128;2022-07-23T07:05:01;99982.66;;;39.01
24740;BMP280;45234;48.148;17.128;2022-07-23T07:07:32;99974.06;;;39.09
24740;BMP280;45234;48.148;17.128;2022-07-23T07:09:59;99977.31;;;38.90
24740;BMP280;45234;48.148;17.128;2022-07-23T07:12:28;99973.09;;;39.26
24740;BMP280;45234;48.148;17.128;2022-07-23T07:14:56;99967.09;;;39.45
24740;BMP280;45234;48.148;17.128;2022-07-23T07:17:24;99967.16;;;39.76
24740;BMP280;45234;48.148;17.128;2022-07-23T07:19:51;99979.59;;;40.07
24740;BMP280;45234;48.148;17.128;2022-07-23T07:22:18;99968.22;;;40.42
24740;BMP280;45234;48.148;17.128;2022-07-23T07:24:45;99970.06;;;40.49
24740;BMP280;45234;48.148;17.128;2022-07-23T07:27:12;99963.91;;;39.54
24740;BMP280;45234;48.148;17.128;2022-07-23T07:29:39;99977.09;;;39.18
24740;BMP280;45234;48.148;17.128;2022-07-23T07:32:06;99963.06;;;39.23
24740;BMP280;45234;48.148;17.128;2022-07-23T07:34:33;99969.94;;;39.35
24740;BMP280;45234;48.148;17.128;2022-07-23T07:37:00;99962.75;;;39.55
24740;BMP280;45234;48.148;17.128;2022-07-23T07:39:28;99967.00;;;39.56
24740;BMP280;45234;48.148;17.128;2022-07-23T07:41:55;99968.47;;;39.64
24740;BMP280;45234;48.148;17.128;2022-07-23T07:44:22;99976.38;;;39.85
24740;BMP280;45234;48.148;17.128;2022-07-23T07:46:49;99978.53;;;40.01
24740;BMP280;45234;48.148;17.128;2022-07-23T07:49:16;99964.47;;;40.06
24740;BMP280;45234;48.148;17.128;2022-07-23T07:51:47;99972.78;;;39.62
24740;BMP280;45234;48.148;17.128;2022-07-23T07:54:15;99973.00;;;39.74
24740;BMP280;45234;48.148;17.128;2022-07-23T07:56:42;99980.75;;;40.06
24740;BMP280;45234;48.148;17.128;2022-07-23T07:59:10;99983.53;;;39.69
24740;BMP280;45234;48.148;17.128;2022-07-23T08:01:38;99980.81;;;39.99
24740;BMP280;45234;48.148;17.128;2022-07-23T08:04:05;99976.84;;;40.37
24740;BMP280;45234;48.148;17.128;2022-07-23T08:06:32;99976.69;;;40.75
24740;BMP280;45234;48.148;17.128;2022-07-23T08:09:00;99982.72;;;40.32
24740;BMP280;45234;48.148;17.128;2022-07-23T08:11:27;99979.50;;;39.84
24740;BMP280;45234;48.148;17.128;2022-07-23T08:13:54;99979.50;;;39.84
24740;BMP280;45234;48.148;17.128;2022-07-23T08:16:22;99980.84;;;39.31
24740;BMP280;45234;48.148;17.128;2022-07-23T08:18:51;99984.41;;;38.70
24740;BMP280;45234;48.148;17.128;2022-07-23T08:21:18;99983.56;;;38.80
24740;BMP280;45234;48.148;17.128;2022-07-23T08:23:45;99978.97;;;38.73
24740;BMP280;45234;48.148;17.128;2022-07-23T08:26:12;99980.72;;;38.43
24740;BMP280;45234;48.148;17.128;2022-07-23T08:28:39;99985.44;;;38.24
24740;BMP280;45234;48.148;17.128;2022-07-23T08:31:07;99986.53;;;38.38
24740;BMP280;45234;48.148;17.128;2022-07-23T08:33:34;99985.09;;;38.19
24740;BMP280;45234;48.148;17.128;2022-07-23T08:36:02;99977.88;;;37.73
24740;BMP280;45234;48.148;17.128;2022-07-23T08:38:32;99982.47;;;37.94
24740;BMP280;45234;48.148;17.128;2022-07-23T08:40:59;99991.69;;;38.14
24740;BMP280;45234;48.148;17.128;2022-07-23T08:43:28;99985.78;;;38.34
24740;BMP280;45234;48.148;17.128;2022-07-23T08:45:58;99979.25;;;38.27
24740;BMP280;45234;48.148;17.128;2022-07-23T08:48:28;99982.19;;;38.51
24740;BMP280;45234;48.148;17.128;2022-07-23T08:50:59;99984.78;;;38.75
24740;BMP280;45234;48.148;17.128;2022-07-23T08:53:30;99986.19;;;38.90
24740;BMP280;45234;48.148;17.128;2022-07-23T08:56:00;99984.97;;;38.95
24740;BMP280;45234;48.148;17.128;2022-07-23T08:58:31;99989.03;;;38.73
24740;BMP280;45234;48.148;17.128;2022-07-23T09:00:59;99993.31;;;38.70
24740;BMP280;45234;48.148;17.128;2022-07-23T09:03:33;99988.31;;;38.62
24740;BMP280;45234;48.148;17.128;2022-07-23T09:06:01;99982.91;;;38.62
24740;BMP280;45234;48.148;17.128;2022-07-23T09:08:35;99983.00;;;38.55
24740;BMP280;45234;48.148;17.128;2022-07-23T09:11:07;99968.72;;;38.44
24740;BMP280;45234;48.148;17.128;2022-07-23T09:16:14;99966.25;;;37.94
24740;BMP280;45234;48.148;17.128;2022-07-23T09:18:43;99970.53;;;37.74
24740;BMP280;45234;48.148;17.128;2022-07-23T09:21:25;99964.69;;;37.86
24740;BMP280;45234;48.148;17.128;2022-07-23T09:24:09;99970.91;;;37.83
24740;BMP280;45234;48.148;17.128;2022-07-23T09:26:47;99969.78;;;37.70
24740;BMP280;45234;48.148;17.128;2022-07-23T09:37:08;99967.41;;;37.79
24740;BMP280;45234;48.148;17.128;2022-07-23T09:39:36;99974.06;;;37.50
24740;BMP280;45234;48.148;17.128;2022-07-23T09:42:16;99959.03;;;37.28
24740;BMP280;45234;48.148;17.128;2022-07-23T09:44:45;99947.78;;;37.43
24740;BMP280;45234;48.148;17.128;2022-07-23T09:47:15;99951.22;;;36.73
24740;BMP280;45234;48.148;17.128;2022-07-23T09:50:08;99953.56;;;36.78
24740;BMP280;45234;48.148;17.128;2022-07-23T09:52:56;99951.22;;;36.66
24740;BMP280;45234;48.148;17.128;2022-07-23T09:55:32;99953.19;;;36.83
24740;BMP280;45234;48.148;17.128;2022-07-23T09:58:06;99944.34;;;36.86
24740;BMP280;45234;48.148;17.128;2022-07-23T10:00:38;99944.75;;;36.95
24740;BMP280;45234;48.148;17.128;2022-07-23T10:03:06;99941.66;;;37.07
24740;BMP280;45234;48.148;17.128;2022-07-23T10:05:54;99936.22;;;36.79
24740;BMP280;45234;48.148;17.128;2022-07-23T10:08:32;99930.81;;;36.79
24740;BMP280;45234;48.148;17.128;2022-07-23T10:11:18;99930.84;;;37.00
24740;BMP280;45234;48.148;17.128;2022-07-23T10:13:46;99924.63;;;36.89
24740;BMP280;45234;48.148;17.128;2022-07-23T10:16:13;99925.78;;;36.67
24740;BMP280;45234;48.148;17.128;2022-07-23T10:18:53;99923.78;;;36.39
24740;BMP280;45234;48.148;17.128;2022-07-23T10:21:30;99920.66;;;36.27
24740;BMP280;45234;48.148;17.128;2022-07-23T10:29:49;99911.94;;;35.75
24740;BMP280;45234;48.148;17.128;2022-07-23T10:37:44;99917.00;;;35.80
24740;BMP280;45234;48.148;17.128;2022-07-23T10:40:18;99908.91;;;35.80
24740;BMP280;45234;48.148;17.128;2022-07-23T10:42:50;99909.53;;;35.67
24740;BMP280;45234;48.148;17.128;2022-07-23T10:45:35;99904.81;;;35.46
24740;BMP280;45234;48.148;17.128;2022-07-23T10:51:05;99903.63;;;36.09
24740;BMP280;45234;48.148;17.128;2022-07-23T10:59:18;99894.41;;;36.31
24740;BMP280;45234;48.148;17.128;2022-07-23T11:01:45;99891.72;;;36.24
24740;BMP280;45234;48.148;17.128;2022-07-23T11:04:16;99888.19;;;36.09
24740;BMP280;45234;48.148;17.128;2022-07-23T11:09:29;99873.53;;;36.03
24740;BMP280;45234;48.148;17.128;2022-07-23T11:20:21;99857.34;;;36.10
24740;BMP280;45234;48.148;17.128;2022-07-23T11:22:51;99855.81;;;36.09
24740;BMP280;45234;48.148;17.128;2022-07-23T11:27:51;99848.84;;;36.04
24740;BMP280;45234;48.148;17.128;2022-07-23T11:30:39;99844.59;;;35.96
24740;BMP280;45234;48.148;17.128;2022-07-23T11:35:49;99830.72;;;35.94
24740;BMP280;45234;48.148;17.128;2022-07-23T11:38:21;99833.75;;;35.89
24740;BMP280;45234;48.148;17.128;2022-07-23T11:40:55;99836.00;;;35.73
24740;BMP280;45234;48.148;17.128;2022-07-23T11:43:28;99835.28;;;35.83
24740;BMP280;45234;48.148;17.128;2022-07-23T11:45:59;99822.56;;;35.80
24740;BMP280;45234;48.148;17.128;2022-07-23T11:48:28;99826.81;;;35.81
24740;BMP280;45234;48.148;17.128;2022-07-23T11:50:57;99829.13;;;35.86
24740;BMP280;45234;48.148;17.128;2022-07-23T11:53:33;99827.94;;;35.77
24740;BMP280;45234;48.148;17.128;2022-07-23T11:56:19;99831.00;;;35.72
24740;BMP280;45234;48.148;17.128;2022-07-23T11:58:55;99831.75;;;35.76
24740;BMP280;45234;48.148;17.128;2022-07-23T12:01:26;99823.31;;;35.77
24740;BMP280;45234;48.148;17.128;2022-07-23T12:03:53;99813.72;;;35.80
24740;BMP280;45234;48.148;17.128;2022-07-23T12:06:20;99814.88;;;35.82
24740;BMP280;45234;48.148;17.128;2022-07-23T12:08:48;99804.03;;;35.72
24740;BMP280;45234;48.148;17.128;2022-07-23T12:11:15;99808.31;;;35.80
24740;BMP280;45234;48.148;17.128;2022-07-23T12:13:42;99809.47;;;35.82
24740;BMP280;45234;48.148;17.128;2022-07-23T12:16:09;99811.41;;;35.89
24740;BMP280;45234;48.148;17.128;2022-07-23T12:18:36;99802.53;;;35.88
24740;BMP280;45234;48.148;17.128;2022-07-23T12:21:04;99812.16;;;35.86
24740;BMP280;45234;48.148;17.128;2022-07-23T12:23:34;99810.25;;;35.86
24740;BMP280;45234;48.148;17.128;2022-07-23T12:26:03;99803.28;;;35.85
24740;BMP280;45234;48.148;17.128;2022-07-23T12:28:32;99797.91;;;35.85
24740;BMP280;45234;48.148;17.128;2022-07-23T12:31:01;99791.75;;;35.88
24740;BMP280;45234;48.148;17.128;2022-07-23T12:33:40;99793.25;;;35.79
24740;BMP280;45234;48.148;17.128;2022-07-23T12:36:09;99789.38;;;35.69
24740;BMP280;45234;48.148;17.128;2022-07-23T12:38:46;99789.75;;;35.68
24740;BMP280;45234;48.148;17.128;2022-07-23T12:41:14;99789.38;;;35.69
24740;BMP280;45234;48.148;17.128;2022-07-23T12:43:43;99785.50;;;35.63
24740;BMP280;45234;48.148;17.128;2022-07-23T12:46:12;99790.50;;;35.61
24740;BMP280;45234;48.148;17.128;2022-07-23T12:51:27;99792.84;;;35.73
24740;BMP280;45234;48.148;17.128;2022-07-23T12:53:58;99796.75;;;35.83
24740;BMP280;45234;48.148;17.128;2022-07-23T12:56:33;99802.56;;;35.95
24740;BMP280;45234;48.148;17.128;2022-07-23T13:01:38;99798.75;;;36.14
24740;BMP280;45234;48.148;17.128;2022-07-23T13:04:12;99802.63;;;36.31
24740;BMP280;45234;48.148;17.128;2022-07-23T13:06:54;99816.53;;;36.47
24740;BMP280;45234;48.148;17.128;2022-07-23T13:09:28;99812.69;;;36.62
24740;BMP280;45234;48.148;17.128;2022-07-23T13:12:08;99810.38;;;36.71
24740;BMP280;45234;48.148;17.128;2022-07-23T13:14:38;99804.97;;;36.71
24740;BMP280;45234;48.148;17.128;2022-07-23T13:17:05;99819.25;;;36.68
24740;BMP280;45234;48.148;17.128;2022-07-23T13:19:33;99828.91;;;36.55
24740;BMP280;45234;48.148;17.128;2022-07-23T13:22:01;99836.59;;;36.39
24740;BMP280;45234;48.148;17.128;2022-07-23T13:24:35;99841.19;;;36.21
24740;BMP280;45234;48.148;17.128;2022-07-23T13:27:06;99842.69;;;36.04
24740;BMP280;45234;48.148;17.128;2022-07-23T13:29:39;99835.66;;;35.82
24740;BMP280;45234;48.148;17.128;2022-07-23T13:32:07;99844.03;;;35.66
24740;BMP280;45234;48.148;17.128;2022-07-23T13:34:39;99846.25;;;35.46
24740;BMP280;45234;48.148;17.128;2022-07-23T13:37:08;99854.28;;;35.36
24740;BMP280;45234;48.148;17.128;2022-07-23T13:39:35;99856.06;;;35.18
24740;BMP280;45234;48.148;17.128;2022-07-23T13:42:05;99855.91;;;34.96
24740;BMP280;45234;48.148;17.128;2022-07-23T13:44:34;99857.00;;;34.85
24740;BMP280;45234;48.148;17.128;2022-07-23T13:47:02;99864.13;;;34.70
24740;BMP280;45234;48.148;17.128;2022-07-23T13:49:31;99866.28;;;34.54
24740;BMP280;45234;48.148;17.128;2022-07-23T13:51:58;99867.34;;;34.46
24740;BMP280;45234;48.148;17.128;2022-07-23T13:54:25;99865.34;;;34.36
24740;BMP280;45234;48.148;17.128;2022-07-23T13:56:54;99865.28;;;34.32
24740;BMP280;45234;48.148;17.128;2022-07-23T13:59:22;99873.28;;;34.29
24740;BMP280;45234;48.148;17.128;2022-07-23T14:01:53;99875.91;;;34.22
24740;BMP280;45234;48.148;17.128;2022-07-23T14:04:40;99879.69;;;34.17
24740;BMP280;45234;48.148;17.128;2022-07-23T14:07:08;99882.34;;;34.14
24740;BMP280;45234;48.148;17.128;2022-07-23T14:09:35;99878.13;;;34.16
24740;BMP280;45234;48.148;17.128;2022-07-23T14:12:04;99881.59;;;34.17
24740;BMP280;45234;48.148;17.128;2022-07-23T14:14:32;99875.09;;;34.18
24740;BMP280;45234;48.148;17.128;2022-07-23T14:17:03;99875.22;;;34.28
24740;BMP280;45234;48.148;17.128;2022-07-23T14:19:31;99860.59;;;34.26
24740;BMP280;45234;48.148;17.128;2022-07-23T14:21:59;99859.78;;;34.22
24740;BMP280;45234;48.148;17.128;2022-07-23T14:24:26;99858.22;;;34.21
24740;BMP280;45234;48.148;17.128;2022-07-23T14:27:00;99847.38;;;34.14
24740;BMP280;45234;48.148;17.128;2022-07-23T14:29:28;99855.75;;;34.09
24740;BMP280;45234;48.148;17.128;2022-07-23T14:31:57;99842.13;;;33.95
24740;BMP280;45234;48.148;17.128;2022-07-23T14:34:24;99833.66;;;33.92
24740;BMP280;45234;48.148;17.128;2022-07-23T14:36:54;99835.63;;;33.96
24740;BMP280;45234;48.148;17.128;2022-07-23T14:39:21;99824.97;;;34.03
24740;BMP280;45234;48.148;17.128;2022-07-23T14:41:48;99834.69;;;34.14
24740;BMP280;45234;48.148;17.128;2022-07-23T14:44:16;99829.91;;;34.34
24740;BMP280;45234;48.148;17.128;2022-07-23T14:46:45;99825.63;;;34.66
24740;BMP280;45234;48.148;17.128;2022-07-23T14:49:12;99825.47;;;34.92
24740;BMP280;45234;48.148;17.128;2022-07-23T14:51:39;99833.72;;;35.14
24740;BMP280;45234;48.148;17.128;2022-07-23T14:54:09;99835.47;;;35.43
24740;BMP280;45234;48.148;17.128;2022-07-23T14:56:36;99836.31;;;35.58
24740;BMP280;45234;48.148;17.128;2022-07-23T14:59:04;99848.59;;;35.48
24740;BMP280;45234;48.148;17.128;2022-07-23T15:01:32;99846.19;;;35.36